sensor_id;sensor_type;location;lat;lon;timestamp;temperature;humidity
33739;DHT22;20063;51.730;11.110;2023-11-21T00:02:15;8.70;99.90
33739;DHT22;20063;51.730;11.110;2023-11-21T00:04:40;8.80;99.90
33739;DHT22;20063;51.730;11.110;2023-11-21T00:07:07;8.80;99.90
33739;DHT22;20063;51.730;11.110;2023-11-21T00:09:33;8.80;99.90
33739;DHT22;20063;51.730;11.110;2023-11-21T00:11:58;8.80;99.90
33739;DHT22;20063;51.730;11.110;2023-11-21T00:14:27;8.90;99.90
33739;DHT22;20063;51.730;11.110;2023-11-21T00:16:53;8.90;99.90
33739;DHT22;20063;51.730;11.110;2023-11-21T00:19:19;8.90;99.90
33739;DHT22;20063;51.730;11.110;2023-11-21T00:21:44;8.90;99.90
33739;DHT22;20063;51.730;11.110;2023-11-21T00:24:11;8.90;99.90
33739;DHT22;20063;51.730;11.110;2023-11-21T00:26:39;8.90;99.90
33739;DHT22;20063;51.730;11.110;2023-11-21T00:29:05;8.90;99.90
33739;DHT22;20063;51.730;11.110;2023-11-21T00:31:34;8.90;99.90
33739;DHT22;20063;51.730;11.110;2023-11-21T00:33:59;8.90;99.90
33739;DHT22;20063;51.730;11.110;2023-11-21T00:36:25;8.90;99.90
33739;DHT22;20063;51.730;11.110;2023-11-21T00:38:52;8.90;99.90
33739;DHT22;20063;51.730;11.110;2023-11-21T00:41:17;8.90;99.90
33739;DHT22;20063;51.730;11.110;2023-11-21T00:43:43;8.80;99.90
33739;DHT22;20063;51.730;11.110;2023-11-21T00:46:09;8.80;99.90
33739;DHT22;20063;51.730;11.110;2023-11-21T00:48:35;8.80;99.90
33739;DHT22;20063;51.730;11.110;2023-11-21T00:51:00;8.80;99.90
33739;DHT22;20063;51.730;11.110;2023-11-21T00:53:26;8.80;99.90
33739;DHT22;20063;51.730;11.110;2023-11-21T00:55:55;8.80;99.90
33739;DHT22;20063;51.730;11.110;2023-11-21T00:58:24;8.80;99.90
33739;DHT22;20063;51.730;11.110;2023-11-21T01:00:49;8.80;99.90
33739;DHT22;20063;51.730;11.110;2023-11-21T01:03:15;8.80;99.90
33739;DHT22;20063;51.730;11.110;2023-11-21T01:05:41;8.80;99.90
33739;DHT22;20063;51.730;11.110;2023-11-21T01:08:06;8.80;99.90
33739;DHT22;20063;51.730;11.110;2023-11-21T01:10:35;8.80;99.90
33739;DHT22;20063;51.730;11.110;2023-11-21T01:13:01;8.80;99.90
33739;DHT22;20063;51.730;11.110;2023-11-21T01:15:27;8.80;99.90
33739;DHT22;20063;51.730;11.110;2023-11-21T01:17:52;8.80;99.90
33739;DHT22;20063;51.730;11.110;2023-11-21T01:20:18;8.80;99.90
33739;DHT22;20063;51.730;11.110;2023-11-21T01:22:44;8.80;99.90
33739;DHT22;20063;51.730;11.110;2023-11-21T01:25:10;8.80;99.90
33739;DHT22;20063;51.730;11.110;2023-11-21T01:27:36;8.80;99.90
33739;DHT22;20063;51.730;11.110;2023-11-21T01:30:05;8.70;99.90
33739;DHT22;20063;51.730;11.110;2023-11-21T01:32:33;8.80;99.90
33739;DHT22;20063;51.730;11.110;2023-11-21T01:34:59;8.80;99.90
33739;DHT22;20063;51.730;11.110;2023-11-21T01:37:25;8.80;99.90
33739;DHT22;20063;51.730;11.110;2023-11-21T01:39:56;8.70;99.90
33739;DHT22;20063;51.730;11.110;2023-11-21T01:42:21;8.80;99.90
33739;DHT22;20063;51.730;11.110;2023-11-21T01:44:47;8.80;99.90
33739;DHT22;20063;51.730;11.110;2023-11-21T01:47:14;8.80;99.90
33739;DHT22;20063;51.730;11.110;2023-11-21T01:49:44;8.90;99.90
33739;DHT22;20063;51.730;11.110;2023-11-21T01:52:11;8.80;99.90
33739;DHT22;20063;51.730;11.110;2023-11-21T01:54:37;8.80;99.90
33739;DHT22;20063;51.730;11.110;2023-11-21T01:57:04;8.80;99.90
33739;DHT22;20063;51.730;11.110;2023-11-21T01:59:35;8.80;99.90
33739;DHT22;20063;51.730;11.110;2023-11-21T02:02:05;8.80;99.90
33739;DHT22;20063;51.730;11.110;2023-11-21T02:04:35;8.80;99.90
33739;DHT22;20063;51.730;11.110;2023-11-21T02:07:03;8.80;99.90
33739;DHT22;20063;51.730;11.110;2023-11-21T02:09:32;8.80;99.90
33739;DHT22;20063;51.730;11.110;2023-11-21T02:11:59;8.80;99.90
33739;DHT22;20063;51.730;11.110;2023-11-21T02:14:29;8.80;99.90
33739;DHT22;20063;51.730;11.110;2023-11-21T02:16:57;8.80;99.90
33739;DHT22;20063;51.730;11.110;2023-11-21T02:19:23;8.80;99.90
33739;DHT22;20063;51.730;11.110;2023-11-21T02:21:51;8.80;99.90
33739;DHT22;20063;51.730;11.110;2023-11-21T02:24:23;8.80;99.90
33739;DHT22;20063;51.730;11.110;2023-11-21T02:26:50;8.80;99.90
33739;DHT22;20063;51.730;11.110;2023-11-21T02:29:19;8.80;99.90
33739;DHT22;20063;51.730;11.110;2023-11-21T02:31:52;8.80;99.90
33739;DHT22;20063;51.730;11.110;2023-11-21T02:34:20;8.80;99.90
33739;DHT22;20063;51.730;11.110;2023-11-21T02:36:47;8.80;99.90
33739;DHT22;20063;51.730;11.110;2023-11-21T02:39:17;8.80;99.90
33739;DHT22;20063;51.730;11.110;2023-11-21T02:41:43;8.80;99.90
33739;DHT22;20063;51.730;11.110;2023-11-21T02:44:10;8.80;99.90
33739;DHT22;20063;51.730;11.110;2023-11-21T02:46:36;8.80;99.90
33739;DHT22;20063;51.730;11.110;2023-11-21T02:49:03;8.80;99.90
33739;DHT22;20063;51.730;11.110;2023-11-21T02:51:29;8.80;99.90
33739;DHT22;20063;51.730;11.110;2023-11-21T02:53:55;8.80;99.90
33739;DHT22;20063;51.730;11.110;2023-11-21T02:56:25;8.80;99.90
33739;DHT22;20063;51.730;11.110;2023-11-21T02:58:51;8.70;99.90
33739;DHT22;20063;51.730;11.110;2023-11-21T03:01:16;8.70;99.90
33739;DHT22;20063;51.730;11.110;2023-11-21T03:03:42;8.70;99.90
33739;DHT22;20063;51.730;11.110;2023-11-21T03:06:08;8.70;99.90
33739;DHT22;20063;51.730;11.110;2023-11-21T03:08:34;8.80;99.90
33739;DHT22;20063;51.730;11.110;2023-11-21T03:11:00;8.70;99.90
33739;DHT22;20063;51.730;11.110;2023-11-21T03:13:25;8.80;99.90
33739;DHT22;20063;51.730;11.110;2023-11-21T03:15:51;8.70;99.90
33739;DHT22;20063;51.730;11.110;2023-11-21T03:18:17;8.70;99.90
33739;DHT22;20063;51.730;11.110;2023-11-21T03:20:46;8.70;99.90
33739;DHT22;20063;51.730;11.110;2023-11-21T03:23:11;8.70;99.90
33739;DHT22;20063;51.730;11.110;2023-11-21T03:25:37;8.70;99.90
33739;DHT22;20063;51.730;11.110;2023-11-21T03:28:03;8.70;99.90
33739;DHT22;20063;51.730;11.110;2023-11-21T03:30:29;8.60;99.90
33739;DHT22;20063;51.730;11.110;2023-11-21T03:32:54;8.60;99.90
33739;DHT22;20063;51.730;11.110;2023-11-21T03:35:20;8.60;99.90
33739;DHT22;20063;51.730;11.110;2023-11-21T03:37:46;8.60;99.90
33739;DHT22;20063;51.730;11.110;2023-11-21T03:40:12;8.60;99.90
33739;DHT22;20063;51.730;11.110;2023-11-21T03:42:38;8.60;99.90
33739;DHT22;20063;51.730;11.110;2023-11-21T03:45:05;8.60;99.90
33739;DHT22;20063;51.730;11.110;2023-11-21T03:47:31;8.60;99.90
33739;DHT22;20063;51.730;11.110;2023-11-21T03:49:57;8.60;99.90
33739;DHT22;20063;51.730;11.110;2023-11-21T03:52:23;8.50;99.90
33739;DHT22;20063;51.730;11.110;2023-11-21T03:54:49;8.60;99.90
33739;DHT22;20063;51.730;11.110;2023-11-21T03:57:15;8.60;99.90
33739;DHT22;20063;51.730;11.110;2023-11-21T03:59:40;8.60;99.90
33739;DHT22;20063;51.730;11.110;2023-11-21T04:02:07;8.60;99.90
33739;DHT22;20063;51.730;11.110;2023-11-21T04:04:33;8.60;99.90
33739;DHT22;20063;51.730;11.110;2023-11-21T04:06:59;8.60;99.90
33739;DHT22;20063;51.730;11.110;2023-11-21T04:09:24;8.50;99.90
33739;DHT22;20063;51.730;11.110;2023-11-21T04:11:51;8.60;99.90
33739;DHT22;20063;51.730;11.110;2023-11-21T04:14:17;8.50;99.90
33739;DHT22;20063;51.730;11.110;2023-11-21T04:16:43;8.50;99.90
33739;DHT22;20063;51.730;11.110;2023-11-21T04:19:09;8.50;99.90
33739;DHT22;20063;51.730;11.110;2023-11-21T04:21:38;8.50;99.90
33739;DHT22;20063;51.730;11.110;2023-11-21T04:24:04;8.50;99.90
33739;DHT22;20063;51.730;11.110;2023-11-21T04:26:30;8.50;99.90
33739;DHT22;20063;51.730;11.110;2023-11-21T04:28:56;8.60;99.90
33739;DHT22;20063;51.730;11.110;2023-11-21T04:31:21;8.60;99.90
33739;DHT22;20063;51.730;11.110;2023-11-21T04:33:47;8.50;99.90
33739;DHT22;20063;51.730;11.110;2023-11-21T04:36:12;8.50;99.90
33739;DHT22;20063;51.730;11.110;2023-11-21T04:38:39;8.50;99.90
33739;DHT22;20063;51.730;11.110;2023-11-21T04:41:04;8.50;99.90
33739;DHT22;20063;51.730;11.110;2023-11-21T04:43:30;8.50;99.90
33739;DHT22;20063;51.730;11.110;2023-11-21T04:45:56;8.50;99.90
33739;DHT22;20063;51.730;11.110;2023-11-21T04:48:23;8.50;99.90
33739;DHT22;20063;51.730;11.110;2023-11-21T04:50:48;8.50;99.90
33739;DHT22;20063;51.730;11.110;2023-11-21T04:53:14;8.50;99.90
33739;DHT22;20063;51.730;11.110;2023-11-21T04:55:40;8.50;99.90
33739;DHT22;20063;51.730;11.110;2023-11-21T04:58:09;8.50;99.90
33739;DHT22;20063;51.730;11.110;2023-11-21T05:00:35;8.50;99.90
33739;DHT22;20063;51.730;11.110;2023-11-21T05:03:02;8.40;99.90
33739;DHT22;20063;51.730;11.110;2023-11-21T05:05:28;8.40;99.90
33739;DHT22;20063;51.730;11.110;2023-11-21T05:07:55;8.40;99.90
33739;DHT22;20063;51.730;11.110;2023-11-21T05:10:20;8.40;99.90
33739;DHT22;20063;51.730;11.110;2023-11-21T05:12:48;8.40;99.90
33739;DHT22;20063;51.730;11.110;2023-11-21T05:15:16;8.50;99.90
33739;DHT22;20063;51.730;11.110;2023-11-21T05:17:43;8.40;99.90
33739;DHT22;20063;51.730;11.110;2023-11-21T05:20:13;8.40;99.90
33739;DHT22;20063;51.730;11.110;2023-11-21T05:22:40;8.40;99.90
33739;DHT22;20063;51.730;11.110;2023-11-21T05:25:06;8.40;99.90
33739;DHT22;20063;51.730;11.110;2023-11-21T05:27:37;8.40;99.90
33739;DHT22;20063;51.730;11.110;2023-11-21T05:30:04;8.40;99.90
33739;DHT22;20063;51.730;11.110;2023-11-21T05:32:38;8.40;99.90
33739;DHT22;20063;51.730;11.110;2023-11-21T05:35:04;8.40;99.90
33739;DHT22;20063;51.730;11.110;2023-11-21T05:37:35;8.40;99.90
33739;DHT22;20063;51.730;11.110;2023-11-21T05:40:01;8.40;99.90
33739;DHT22;20063;51.730;11.110;2023-11-21T05:42:31;8.30;99.90
33739;DHT22;20063;51.730;11.110;2023-11-21T05:44:57;8.30;99.90
33739;DHT22;20063;51.730;11.110;2023-11-21T05:47:24;8.30;99.90
33739;DHT22;20063;51.730;11.110;2023-11-21T05:49:54;8.30;99.90
33739;DHT22;20063;51.730;11.110;2023-11-21T05:52:20;8.30;99.90
33739;DHT22;20063;51.730;11.110;2023-11-21T05:54:46;8.30;99.90
33739;DHT22;20063;51.730;11.110;2023-11-21T05:57:12;8.30;99.90
33739;DHT22;20063;51.730;11.110;2023-11-21T05:59:38;8.30;99.90
33739;DHT22;20063;51.730;11.110;2023-11-21T06:02:03;8.30;99.90
33739;DHT22;20063;51.730;11.110;2023-11-21T06:04:30;8.30;99.90
33739;DHT22;20063;51.730;11.110;2023-11-21T06:06:56;8.20;99.90
33739;DHT22;20063;51.730;11.110;2023-11-21T06:09:21;8.30;99.90
33739;DHT22;20063;51.730;11.110;2023-11-21T06:11:48;8.30;99.90
33739;DHT22;20063;51.730;11.110;2023-11-21T06:14:13;8.20;99.90
33739;DHT22;20063;51.730;11.110;2023-11-21T06:16:43;8.20;99.90
33739;DHT22;20063;51.730;11.110;2023-11-21T06:19:10;8.20;99.90
33739;DHT22;20063;51.730;11.110;2023-11-21T06:21:36;8.20;99.90
33739;DHT22;20063;51.730;11.110;2023-11-21T06:24:02;8.20;99.90
33739;DHT22;20063;51.730;11.110;2023-11-21T06:26:27;8.20;99.90
33739;DHT22;20063;51.730;11.110;2023-11-21T06:28:53;8.20;99.90
33739;DHT22;20063;51.730;11.110;2023-11-21T06:31:19;8.20;99.90
33739;DHT22;20063;51.730;11.110;2023-11-21T06:33:44;8.20;99.90
33739;DHT22;20063;51.730;11.110;2023-11-21T06:36:10;8.20;99.90
33739;DHT22;20063;51.730;11.110;2023-11-21T06:38:37;8.10;99.90
33739;DHT22;20063;51.730;11.110;2023-11-21T06:41:03;8.10;99.90
33739;DHT22;20063;51.730;11.110;2023-11-21T06:43:29;8.10;99.90
33739;DHT22;20063;51.730;11.110;2023-11-21T06:45:57;8.10;99.90
33739;DHT22;20063;51.730;11.110;2023-11-21T06:48:22;8.10;99.90
33739;DHT22;20063;51.730;11.110;2023-11-21T06:50:48;8.10;99.90
33739;DHT22;20063;51.730;11.110;2023-11-21T06:53:14;8.10;99.90
33739;DHT22;20063;51.730;11.110;2023-11-21T06:55:40;8.20;99.90
33739;DHT22;20063;51.730;11.110;2023-11-21T06:58:06;8.10;99.90
33739;DHT22;20063;51.730;11.110;2023-11-21T07:00:34;8.10;99.90
33739;DHT22;20063;51.730;11.110;2023-11-21T07:03:00;8.10;99.90
33739;DHT22;20063;51.730;11.110;2023-11-21T07:05:25;8.10;99.90
33739;DHT22;20063;51.730;11.110;2023-11-21T07:07:51;8.20;99.90
33739;DHT22;20063;51.730;11.110;2023-11-21T07:10:19;8.10;99.90
33739;DHT22;20063;51.730;11.110;2023-11-21T07:12:45;8.10;99.90
33739;DHT22;20063;51.730;11.110;2023-11-21T07:15:10;8.20;99.90
33739;DHT22;20063;51.730;11.110;2023-11-21T07:17:37;8.10;99.90
33739;DHT22;20063;51.730;11.110;2023-11-21T07:20:03;8.10;99.90
33739;DHT22;20063;51.730;11.110;2023-11-21T07:22:29;8.10;99.90
33739;DHT22;20063;51.730;11.110;2023-11-21T07:24:55;8.10;99.90
33739;DHT22;20063;51.730;11.110;2023-11-21T07:27:22;8.10;99.90
33739;DHT22;20063;51.730;11.110;2023-11-21T07:29:47;8.10;99.90
33739;DHT22;20063;51.730;11.110;2023-11-21T07:32:13;8.10;99.90
33739;DHT22;20063;51.730;11.110;2023-11-21T07:34:40;8.10;99.90
33739;DHT22;20063;51.730;11.110;2023-11-21T07:37:08;8.10;99.90
33739;DHT22;20063;51.730;11.110;2023-11-21T07:39:35;8.00;99.90
33739;DHT22;20063;51.730;11.110;2023-11-21T07:42:01;8.10;99.90
33739;DHT22;20063;51.730;11.110;2023-11-21T07:44:28;8.10;99.90
33739;DHT22;20063;51.730;11.110;2023-11-21T07:46:54;8.20;99.90
33739;DHT22;20063;51.730;11.110;2023-11-21T07:49:23;8.10;99.90
33739;DHT22;20063;51.730;11.110;2023-11-21T07:51:49;8.10;99.90
33739;DHT22;20063;51.730;11.110;2023-11-21T07:54:16;8.10;99.90
33739;DHT22;20063;51.730;11.110;2023-11-21T07:56:41;8.10;99.90
33739;DHT22;20063;51.730;11.110;2023-11-21T07:59:07;8.10;99.90
33739;DHT22;20063;51.730;11.110;2023-11-21T08:01:33;8.10;99.90
33739;DHT22;20063;51.730;11.110;2023-11-21T08:03:59;8.20;99.90
33739;DHT22;20063;51.730;11.110;2023-11-21T08:06:31;8.20;99.90
33739;DHT22;20063;51.730;11.110;2023-11-21T08:08:57;8.20;99.90
33739;DHT22;20063;51.730;11.110;2023-11-21T08:11:23;8.20;99.90
33739;DHT22;20063;51.730;11.110;2023-11-21T08:13:48;8.20;99.90
33739;DHT22;20063;51.730;11.110;2023-11-21T08:16:14;8.20;99.90
33739;DHT22;20063;51.730;11.110;2023-11-21T08:18:41;8.10;99.90
33739;DHT22;20063;51.730;11.110;2023-11-21T08:21:06;8.20;99.90
33739;DHT22;20063;51.730;11.110;2023-11-21T08:23:33;8.10;99.90
33739;DHT22;20063;51.730;11.110;2023-11-21T08:25:59;8.10;99.90
33739;DHT22;20063;51.730;11.110;2023-11-21T08:28:25;8.00;99.90
33739;DHT22;20063;51.730;11.110;2023-11-21T08:30:53;8.00;99.90
33739;DHT22;20063;51.730;11.110;2023-11-21T08:33:22;7.90;99.90
33739;DHT22;20063;51.730;11.110;2023-11-21T08:35:48;7.90;99.90
33739;DHT22;20063;51.730;11.110;2023-11-21T08:38:14;7.80;99.90
33739;DHT22;20063;51.730;11.110;2023-11-21T08:40:43;7.80;99.90
33739;DHT22;20063;51.730;11.110;2023-11-21T08:43:08;7.70;99.90
33739;DHT22;20063;51.730;11.110;2023-11-21T08:45:34;7.70;99.90
33739;DHT22;20063;51.730;11.110;2023-11-21T08:48:00;7.60;99.90
33739;DHT22;20063;51.730;11.110;2023-11-21T08:50:27;7.60;99.90
33739;DHT22;20063;51.730;11.110;2023-11-21T08:52:53;7.60;99.90
33739;DHT22;20063;51.730;11.110;2023-11-21T08:55:19;7.60;99.90
33739;DHT22;20063;51.730;11.110;2023-11-21T08:57:45;7.60;99.90
33739;DHT22;20063;51.730;11.110;2023-11-21T09:00:12;7.50;99.90
33739;DHT22;20063;51.730;11.110;2023-11-21T09:02:41;7.50;99.90
33739;DHT22;20063;51.730;11.110;2023-11-21T09:05:08;7.50;99.90
33739;DHT22;20063;51.730;11.110;2023-11-21T09:07:35;7.40;99.90
33739;DHT22;20063;51.730;11.110;2023-11-21T09:10:01;7.40;99.90
33739;DHT22;20063;51.730;11.110;2023-11-21T09:12:27;7.40;99.90
33739;DHT22;20063;51.730;11.110;2023-11-21T09:14:53;7.40;99.90
33739;DHT22;20063;51.730;11.110;2023-11-21T09:17:19;7.30;99.90
33739;DHT22;20063;51.730;11.110;2023-11-21T09:19:45;7.30;99.90
33739;DHT22;20063;51.730;11.110;2023-11-21T09:22:17;7.20;99.90
33739;DHT22;20063;51.730;11.110;2023-11-21T09:24:43;7.20;99.90
33739;DHT22;20063;51.730;11.110;2023-11-21T09:27:09;7.10;99.90
33739;DHT22;20063;51.730;11.110;2023-11-21T09:29:35;7.10;99.90
33739;DHT22;20063;51.730;11.110;2023-11-21T09:32:02;7.10;99.90
33739;DHT22;20063;51.730;11.110;2023-11-21T09:34:28;7.10;99.90
33739;DHT22;20063;51.730;11.110;2023-11-21T09:36:54;7.10;99.90
33739;DHT22;20063;51.730;11.110;2023-11-21T09:39:19;7.10;99.90
33739;DHT22;20063;51.730;11.110;2023-11-21T09:41:52;7.00;99.90
33739;DHT22;20063;51.730;11.110;2023-11-21T09:44:35;7.00;99.90
33739;DHT22;20063;51.730;11.110;2023-11-21T09:47:03;7.00;99.90
33739;DHT22;20063;51.730;11.110;2023-11-21T09:49:28;7.00;99.90
33739;DHT22;20063;51.730;11.110;2023-11-21T09:52:01;7.00;99.90
33739;DHT22;20063;51.730;11.110;2023-11-21T09:54:29;7.00;99.90
33739;DHT22;20063;51.730;11.110;2023-11-21T09:56:59;7.00;99.90
33739;DHT22;20063;51.730;11.110;2023-11-21T09:59:30;7.00;99.90
33739;DHT22;20063;51.730;11.110;2023-11-21T10:01:57;7.00;99.90
33739;DHT22;20063;51.730;11.110;2023-11-21T10:04:27;6.90;99.90
33739;DHT22;20063;51.730;11.110;2023-11-21T10:06:54;6.90;99.90
33739;DHT22;20063;51.730;11.110;2023-11-21T10:09:27;6.90;99.90
33739;DHT22;20063;51.730;11.110;2023-11-21T10:11:53;6.90;99.90
33739;DHT22;20063;51.730;11.110;2023-11-21T10:14:21;6.80;99.90
33739;DHT22;20063;51.730;11.110;2023-11-21T10:16:50;6.80;99.90
33739;DHT22;20063;51.730;11.110;2023-11-21T10:19:16;6.80;99.90
33739;DHT22;20063;51.730;11.110;2023-11-21T10:21:43;6.80;99.90
33739;DHT22;20063;51.730;11.110;2023-11-21T10:24:09;6.70;99.90
33739;DHT22;20063;51.730;11.110;2023-11-21T10:26:35;6.70;99.90
33739;DHT22;20063;51.730;11.110;2023-11-21T10:29:02;6.70;99.90
33739;DHT22;20063;51.730;11.110;2023-11-21T10:31:31;6.70;99.90
33739;DHT22;20063;51.730;11.110;2023-11-21T10:34:20;6.60;99.90
33739;DHT22;20063;51.730;11.110;2023-11-21T10:36:46;6.60;99.90
33739;DHT22;20063;51.730;11.110;2023-11-21T10:39:17;6.60;99.90
33739;DHT22;20063;51.730;11.110;2023-11-21T10:41:48;6.60;99.90
33739;DHT22;20063;51.730;11.110;2023-11-21T10:44:14;6.50;99.90
33739;DHT22;20063;51.730;11.110;2023-11-21T10:47:04;6.50;99.90
33739;DHT22;20063;51.730;11.110;2023-11-21T10:49:30;6.40;99.90
33739;DHT22;20063;51.730;11.110;2023-11-21T10:51:56;6.40;99.90
33739;DHT22;20063;51.730;11.110;2023-11-21T10:54:24;6.40;99.90
33739;DHT22;20063;51.730;11.110;2023-11-21T10:56:56;6.40;99.90
33739;DHT22;20063;51.730;11.110;2023-11-21T10:59:25;6.30;99.90
33739;DHT22;20063;51.730;11.110;2023-11-21T11:01:54;6.20;99.90
33739;DHT22;20063;51.730;11.110;2023-11-21T11:04:26;6.20;99.90
33739;DHT22;20063;51.730;11.110;2023-11-21T11:06:59;6.20;99.90
33739;DHT22;20063;51.730;11.110;2023-11-21T11:09:28;6.10;99.90
33739;DHT22;20063;51.730;11.110;2023-11-21T11:11:56;6.10;99.90
33739;DHT22;20063;51.730;11.110;2023-11-21T11:14:23;6.10;99.90
33739;DHT22;20063;51.730;11.110;2023-11-21T11:16:53;6.00;99.90
33739;DHT22;20063;51.730;11.110;2023-11-21T11:19:20;6.10;99.90
33739;DHT22;20063;51.730;11.110;2023-11-21T11:24:47;6.10;99.90
33739;DHT22;20063;51.730;11.110;2023-11-21T11:30:10;6.10;99.90
33739;DHT22;20063;51.730;11.110;2023-11-21T11:35:34;6.10;99.90
33739;DHT22;20063;51.730;11.110;2023-11-21T11:38:03;6.10;99.90
33739;DHT22;20063;51.730;11.110;2023-11-21T11:40:45;6.10;99.90
33739;DHT22;20063;51.730;11.110;2023-11-21T11:43:12;6.10;99.90
33739;DHT22;20063;51.730;11.110;2023-11-21T11:45:38;6.10;99.90
33739;DHT22;20063;51.730;11.110;2023-11-21T11:48:08;6.10;99.90
33739;DHT22;20063;51.730;11.110;2023-11-21T11:50:33;6.10;99.90
33739;DHT22;20063;51.730;11.110;2023-11-21T11:53:13;6.10;99.90
33739;DHT22;20063;51.730;11.110;2023-11-21T11:55:39;6.10;99.90
33739;DHT22;20063;51.730;11.110;2023-11-21T11:58:08;6.10;99.90
33739;DHT22;20063;51.730;11.110;2023-11-21T12:00:35;6.00;99.90
33739;DHT22;20063;51.730;11.110;2023-11-21T12:03:06;6.00;99.90
33739;DHT22;20063;51.730;11.110;2023-11-21T12:05:34;5.90;99.90
33739;DHT22;20063;51.730;11.110;2023-11-21T12:08:02;6.00;99.90
33739;DHT22;20063;51.730;11.110;2023-11-21T12:10:30;6.00;99.90
33739;DHT22;20063;51.730;11.110;2023-11-21T12:12:58;5.90;99.90
33739;DHT22;20063;51.730;11.110;2023-11-21T12:15:25;5.90;99.90
33739;DHT22;20063;51.730;11.110;2023-11-21T12:17:51;5.90;99.90
33739;DHT22;20063;51.730;11.110;2023-11-21T12:20:24;5.90;99.90
33739;DHT22;20063;51.730;11.110;2023-11-21T12:22:54;5.90;99.90
33739;DHT22;20063;51.730;11.110;2023-11-21T12:25:25;5.90;99.90
33739;DHT22;20063;51.730;11.110;2023-11-21T12:27:55;5.90;99.90
33739;DHT22;20063;51.730;11.110;2023-11-21T12:30:23;5.90;99.90
33739;DHT22;20063;51.730;11.110;2023-11-21T12:32:53;5.90;99.90
33739;DHT22;20063;51.730;11.110;2023-11-21T12:35:21;5.90;99.90
33739;DHT22;20063;51.730;11.110;2023-11-21T12:37:47;5.90;99.90
33739;DHT22;20063;51.730;11.110;2023-11-21T12:40:14;5.90;99.90
33739;DHT22;20063;51.730;11.110;2023-11-21T12:42:45;5.90;99.90
33739;DHT22;20063;51.730;11.110;2023-11-21T12:45:25;5.90;99.90
33739;DHT22;20063;51.730;11.110;2023-11-21T12:47:55;5.90;99.90
33739;DHT22;20063;51.730;11.110;2023-11-21T12:50:23;5.80;99.90
33739;DHT22;20063;51.730;11.110;2023-11-21T12:52:52;5.80;99.90
33739;DHT22;20063;51.730;11.110;2023-11-21T12:55:22;5.80;99.90
33739;DHT22;20063;51.730;11.110;2023-11-21T12:57:50;5.80;99.90
33739;DHT22;20063;51.730;11.110;2023-11-21T13:00:19;5.90;99.90
33739;DHT22;20063;51.730;11.110;2023-11-21T13:02:57;5.90;99.90
33739;DHT22;20063;51.730;11.110;2023-11-21T13:05:34;5.90;99.90
33739;DHT22;20063;51.730;11.110;2023-11-21T13:08:02;5.80;99.90
33739;DHT22;20063;51.730;11.110;2023-11-21T13:10:30;5.90;99.90
33739;DHT22;20063;51.730;11.110;2023-11-21T13:13:00;5.90;99.90
33739;DHT22;20063;51.730;11.110;2023-11-21T13:15:29;5.90;99.90
33739;DHT22;20063;51.730;11.110;2023-11-21T13:17:57;5.90;99.90
33739;DHT22;20063;51.730;11.110;2023-11-21T13:20:26;5.80;99.90
33739;DHT22;20063;51.730;11.110;2023-11-21T13:22:56;5.80;99.90
33739;DHT22;20063;51.730;11.110;2023-11-21T13:25:27;5.90;99.90
33739;DHT22;20063;51.730;11.110;2023-11-21T13:27:56;5.90;99.90
33739;DHT22;20063;51.730;11.110;2023-11-21T13:30:22;5.90;99.90
33739;DHT22;20063;51.730;11.110;2023-11-21T13:32:52;5.80;99.90
33739;DHT22;20063;51.730;11.110;2023-11-21T13:35:18;5.80;99.90
33739;DHT22;20063;51.730;11.110;2023-11-21T13:37:56;5.80;99.90
33739;DHT22;20063;51.730;11.110;2023-11-21T13:40:26;5.80;99.90
33739;DHT22;20063;51.730;11.110;2023-11-21T13:42:54;5.80;99.90
33739;DHT22;20063;51.730;11.110;2023-11-21T13:45:23;5.80;99.90
33739;DHT22;20063;51.730;11.110;2023-11-21T13:47:52;5.80;99.90
33739;DHT22;20063;51.730;11.110;2023-11-21T13:50:20;5.80;99.90
33739;DHT22;20063;51.730;11.110;2023-11-21T13:52:52;5.70;99.90
33739;DHT22;20063;51.730;11.110;2023-11-21T13:55:19;5.80;99.90
33739;DHT22;20063;51.730;11.110;2023-11-21T13:57:44;5.70;99.90
33739;DHT22;20063;51.730;11.110;2023-11-21T14:00:17;5.70;99.90
33739;DHT22;20063;51.730;11.110;2023-11-21T14:03:03;5.70;99.90
33739;DHT22;20063;51.730;11.110;2023-11-21T14:05:33;5.70;99.90
33739;DHT22;20063;51.730;11.110;2023-11-21T14:07:59;5.70;99.90
33739;DHT22;20063;51.730;11.110;2023-11-21T14:10:31;5.70;99.90
33739;DHT22;20063;51.730;11.110;2023-11-21T14:13:11;5.70;99.90
33739;DHT22;20063;51.730;11.110;2023-11-21T14:15:40;5.70;99.90
33739;DHT22;20063;51.730;11.110;2023-11-21T14:18:11;5.70;99.90
33739;DHT22;20063;51.730;11.110;2023-11-21T14:20:40;5.60;99.90
33739;DHT22;20063;51.730;11.110;2023-11-21T14:23:07;5.70;99.90
33739;DHT22;20063;51.730;11.110;2023-11-21T14:25:38;5.60;99.90
33739;DHT22;20063;51.730;11.110;2023-11-21T14:28:05;5.60;99.90
33739;DHT22;20063;51.730;11.110;2023-11-21T14:30:32;5.60;99.90
33739;DHT22;20063;51.730;11.110;2023-11-21T14:33:01;5.60;99.90
33739;DHT22;20063;51.730;11.110;2023-11-21T14:35:27;5.60;99.90
33739;DHT22;20063;51.730;11.110;2023-11-21T14:37:53;5.60;99.90
33739;DHT22;20063;51.730;11.110;2023-11-21T14:40:19;5.50;99.90
33739;DHT22;20063;51.730;11.110;2023-11-21T14:42:50;5.50;99.90
33739;DHT22;20063;51.730;11.110;2023-11-21T14:45:21;5.50;99.90
33739;DHT22;20063;51.730;11.110;2023-11-21T14:47:50;5.50;99.90
33739;DHT22;20063;51.730;11.110;2023-11-21T14:50:36;5.40;99.90
33739;DHT22;20063;51.730;11.110;2023-11-21T14:53:24;5.40;99.90
33739;DHT22;20063;51.730;11.110;2023-11-21T14:56:09;5.40;99.90
33739;DHT22;20063;51.730;11.110;2023-11-21T14:58:35;5.40;99.90
33739;DHT22;20063;51.730;11.110;2023-11-21T15:01:03;5.30;99.90
33739;DHT22;20063;51.730;11.110;2023-11-21T15:03:29;5.30;99.90
33739;DHT22;20063;51.730;11.110;2023-11-21T15:08:25;5.30;99.90
33739;DHT22;20063;51.730;11.110;2023-11-21T15:10:57;5.30;99.90
33739;DHT22;20063;51.730;11.110;2023-11-21T15:13:23;5.20;99.90
33739;DHT22;20063;51.730;11.110;2023-11-21T15:15:51;5.20;99.90
33739;DHT22;20063;51.730;11.110;2023-11-21T15:18:20;5.20;99.90
33739;DHT22;20063;51.730;11.110;2023-11-21T15:20:46;5.20;99.90
33739;DHT22;20063;51.730;11.110;2023-11-21T15:23:12;5.20;99.90
33739;DHT22;20063;51.730;11.110;2023-11-21T15:25:43;5.20;99.90
33739;DHT22;20063;51.730;11.110;2023-11-21T15:28:09;5.20;99.90
33739;DHT22;20063;51.730;11.110;2023-11-21T15:30:35;5.20;99.90
33739;DHT22;20063;51.730;11.110;2023-11-21T15:33:01;5.20;99.90
33739;DHT22;20063;51.730;11.110;2023-11-21T15:35:29;5.10;99.90
33739;DHT22;20063;51.730;11.110;2023-11-21T15:37:55;5.10;99.90
33739;DHT22;20063;51.730;11.110;2023-11-21T15:40:24;5.10;99.90
33739;DHT22;20063;51.730;11.110;2023-11-21T15:42:50;5.10;99.90
33739;DHT22;20063;51.730;11.110;2023-11-21T15:45:16;5.10;99.90